createdAt,value
2023-01-21T00:05:09.479Z,63.35
2023-01-21T00:11:15.309Z,62.57
2023-01-21T00:17:16.849Z,62.97
2023-01-21T00:23:18.424Z,62.67
2023-01-21T00:29:21.051Z,62.05
2023-01-21T00:35:22.406Z,60.73
2023-01-21T00:41:24.000Z,62.13
2023-01-21T00:47:25.589Z,62.15
2023-01-21T00:53:28.392Z,61.01
2023-01-21T00:59:29.733Z,60.32
2023-01-21T01:05:31.611Z,61.03
2023-01-21T01:11:33.051Z,60.78
2023-01-21T01:17:34.569Z,60.33
2023-01-21T01:23:36.058Z,34.36
2023-01-21T01:29:38.837Z,58.03
2023-01-21T01:35:48.699Z,57.79
2023-01-21T01:41:50.246Z,56.88
2023-01-21T01:47:59.238Z,56.64
2023-01-21T01:54:05.643Z,57.74
2023-01-21T02:00:10.601Z,57.29
2023-01-21T02:06:22.576Z,57.17
2023-01-21T02:12:24.412Z,55.33
2023-01-21T02:18:43.858Z,53.05
2023-01-21T02:25:09.909Z,53.76
2023-01-21T02:31:22.683Z,53.73
2023-01-21T02:37:32.620Z,53.67
2023-01-21T02:43:52.192Z,55.05
2023-01-21T02:50:27.881Z,55.69
2023-01-21T02:56:29.462Z,54.34
2023-01-21T03:02:44.356Z,54.70
2023-01-21T03:09:01.646Z,55.61
2023-01-21T03:15:39.658Z,56.55
2023-01-21T03:21:42.159Z,56.61
2023-01-21T03:27:45.907Z,55.97
2023-01-21T03:33:49.426Z,55.67
2023-01-21T03:40:14.425Z,55.78
2023-01-21T03:46:28.937Z,54.32
2023-01-21T03:52:30.605Z,50.92
2023-01-21T03:58:34.976Z,49.56
2023-01-21T04:04:46.500Z,49.62
2023-01-21T04:10:47.875Z,50.17
2023-01-21T04:16:49.408Z,50.56
2023-01-21T04:22:50.906Z,49.67
2023-01-21T04:36:22.235Z,52.82
2023-01-21T04:42:23.753Z,51.92
2023-01-21T04:48:25.365Z,52.24
2023-01-21T04:54:26.957Z,51.34
2023-01-21T05:00:28.884Z,52.04
2023-01-21T05:06:33.510Z,52.35
2023-01-21T05:12:35.140Z,52.90
2023-01-21T05:18:37.201Z,51.70
2023-01-21T05:24:38.759Z,52.01
2023-01-21T05:30:41.747Z,52.92
2023-01-21T05:36:44.235Z,52.19
2023-01-21T05:42:45.941Z,52.08
2023-01-21T05:48:50.184Z,50.64
2023-01-21T05:55:01.227Z,50.65
2023-01-21T06:01:04.071Z,49.73
2023-01-21T06:07:05.670Z,49.43
2023-01-21T06:13:08.663Z,49.55
2023-01-21T06:19:10.103Z,49.16
2023-01-21T06:25:11.749Z,49.07
2023-01-21T06:31:23.609Z,49.04
2023-01-21T06:37:25.489Z,48.86
2023-01-21T06:43:26.930Z,49.73
2023-01-21T06:49:28.343Z,50.64
2023-01-21T06:55:30.376Z,50.40
2023-01-21T07:01:32.728Z,48.74
2023-01-21T07:07:34.843Z,50.81
2023-01-21T07:13:36.792Z,48.63
2023-01-21T07:19:41.349Z,49.38
2023-01-21T07:25:42.904Z,51.09
2023-01-21T07:31:44.791Z,50.51
2023-01-21T07:37:46.539Z,49.24
2023-01-21T07:43:51.252Z,48.83
2023-01-21T07:49:53.435Z,47.95
2023-01-21T07:55:55.258Z,48.00
2023-01-21T08:02:17.137Z,47.17
2023-01-21T08:08:29.966Z,47.31
2023-01-21T08:14:35.208Z,46.18
2023-01-21T08:20:37.256Z,45.39
2023-01-21T08:26:56.385Z,46.11
2023-01-21T08:32:58.081Z,46.81
2023-01-21T08:39:05.018Z,47.09
2023-01-21T08:45:17.386Z,47.02
2023-01-21T08:51:19.155Z,46.49
2023-01-21T08:57:20.827Z,47.01
2023-01-21T09:03:22.535Z,46.58
2023-01-21T09:09:23.966Z,46.96
2023-01-21T09:15:25.485Z,46.58
2023-01-21T09:21:28.698Z,45.70
2023-01-21T09:27:30.185Z,46.59
2023-01-21T09:33:33.168Z,46.46
2023-01-21T09:39:35.862Z,46.66
2023-01-21T09:45:38.259Z,46.29
2023-01-21T09:51:52.488Z,45.81
2023-01-21T09:58:15.154Z,46.28
2023-01-21T10:04:39.073Z,46.53
2023-01-21T10:10:50.913Z,47.17
2023-01-21T10:17:10.650Z,46.78
2023-01-21T10:23:24.245Z,46.75
2023-01-21T10:29:26.762Z,46.72
2023-01-21T10:35:41.217Z,45.91
2023-01-21T10:41:48.934Z,45.70
2023-01-21T10:48:28.900Z,45.04
2023-01-21T10:54:40.791Z,45.05
2023-01-21T11:00:46.697Z,45.32
2023-01-21T11:07:08.884Z,45.11
2023-01-21T11:13:12.980Z,45.27
2023-01-21T11:19:32.896Z,45.18
2023-01-21T11:25:40.751Z,45.06
2023-01-21T11:31:44.629Z,44.74
2023-01-21T11:37:46.252Z,44.65
2023-01-21T11:43:51.187Z,44.44
2023-01-21T11:49:52.617Z,44.90
2023-01-21T11:55:56.541Z,44.39
2023-01-21T12:02:42.627Z,44.24
2023-01-21T12:08:48.310Z,45.27
2023-01-21T12:14:58.679Z,45.49
2023-01-21T12:21:06.316Z,44.98
2023-01-21T12:27:26.690Z,44.47
2023-01-21T12:33:31.732Z,45.29
2023-01-21T12:39:36.298Z,44.77
2023-01-21T12:45:45.462Z,44.25
2023-01-21T12:52:29.954Z,44.29
2023-01-21T12:58:35.981Z,44.40
2023-01-21T13:05:08.788Z,43.92
2023-01-21T13:11:17.716Z,44.19
2023-01-21T13:17:26.478Z,43.93
2023-01-21T13:23:39.362Z,44.24
2023-01-21T13:30:09.460Z,44.73
2023-01-21T13:36:14.766Z,44.78
2023-01-21T13:42:47.792Z,44.12
2023-01-21T13:49:32.930Z,44.51
2023-01-21T13:56:10.928Z,45.32
2023-01-21T14:02:21.874Z,44.75
2023-01-21T14:08:31.528Z,45.16
2023-01-21T14:15:01.063Z,45.72
2023-01-21T14:21:21.128Z,46.46
2023-01-21T14:27:36.923Z,45.93
2023-01-21T14:34:01.275Z,45.63
2023-01-21T14:40:23.179Z,45.37
2023-01-21T14:46:32.062Z,45.61
2023-01-21T14:52:39.376Z,46.12
2023-01-21T14:58:45.436Z,46.42
2023-01-21T15:05:20.794Z,46.37
2023-01-21T15:11:36.606Z,46.44
2023-01-21T15:17:53.069Z,46.36
2023-01-21T15:24:13.528Z,47.02
2023-01-21T15:30:15.000Z,47.31
2023-01-21T15:36:19.705Z,46.98
2023-01-21T15:42:29.775Z,47.30
2023-01-21T15:49:04.829Z,47.40
2023-01-21T15:55:35.048Z,47.76
2023-01-21T16:01:38.697Z,47.90
2023-01-21T16:07:55.326Z,47.59
2023-01-21T16:14:13.043Z,47.64
2023-01-21T16:20:16.759Z,47.44
2023-01-21T16:26:32.985Z,47.48
2023-01-21T16:32:38.173Z,48.69
2023-01-21T16:38:41.388Z,47.63
2023-01-21T16:44:42.814Z,47.52
2023-01-21T16:50:46.858Z,47.09
2023-01-21T16:57:00.809Z,47.45
2023-01-21T17:03:04.049Z,48.07
2023-01-21T17:09:26.143Z,50.55
2023-01-21T17:15:35.672Z,48.00
2023-01-21T17:21:45.695Z,47.16
2023-01-21T17:27:55.121Z,47.60
2023-01-21T17:34:18.613Z,48.12
2023-01-21T17:40:24.898Z,48.21
2023-01-21T17:46:27.315Z,48.48
2023-01-21T17:52:29.600Z,48.34
2023-01-21T17:58:31.193Z,48.02
2023-01-21T18:04:32.742Z,48.54
2023-01-21T18:10:36.793Z,48.65
2023-01-21T18:16:44.188Z,47.62
2023-01-21T18:22:46.775Z,47.56
2023-01-21T18:28:52.843Z,47.14
2023-01-21T18:34:55.357Z,47.84
2023-01-21T18:40:57.309Z,48.16
2023-01-21T18:46:59.583Z,47.99
2023-01-21T18:53:09.208Z,48.18
2023-01-21T18:59:17.226Z,48.76
2023-01-21T19:05:51.655Z,48.65
2023-01-21T19:12:30.193Z,48.36
2023-01-21T19:19:05.240Z,48.00
2023-01-21T19:25:07.597Z,48.06
2023-01-21T19:31:09.544Z,47.42
2023-01-21T19:37:15.862Z,47.74
2023-01-21T19:43:20.868Z,47.99
2023-01-21T19:49:25.061Z,48.01
2023-01-21T19:55:27.382Z,48.05
2023-01-21T20:01:32.033Z,48.19
2023-01-21T20:07:39.212Z,48.45
2023-01-21T20:13:43.030Z,48.08
2023-01-21T20:20:20.314Z,48.09
2023-01-21T20:26:25.794Z,48.14
2023-01-21T20:32:28.073Z,48.38
2023-01-21T20:38:35.141Z,48.55
2023-01-21T20:44:41.551Z,49.49
2023-01-21T20:50:43.050Z,49.55
2023-01-21T20:56:45.050Z,49.29
2023-01-21T21:03:10.484Z,49.18
2023-01-21T21:09:48.807Z,48.82
2023-01-21T21:16:33.221Z,50.43
2023-01-21T21:22:40.885Z,49.37
2023-01-21T21:28:44.524Z,48.96
2023-01-21T21:34:46.271Z,48.53
2023-01-21T21:40:52.180Z,48.00
2023-01-21T21:47:14.927Z,48.26
2023-01-21T21:53:21.405Z,49.06
2023-01-21T21:59:34.963Z,49.13
2023-01-21T22:05:37.255Z,49.08
2023-01-21T22:11:40.074Z,50.36
2023-01-21T22:17:52.196Z,51.19
2023-01-21T22:23:59.608Z,51.25
2023-01-21T22:30:13.275Z,51.76
2023-01-21T22:36:18.257Z,51.70
2023-01-21T22:42:32.608Z,52.28
2023-01-21T22:48:51.721Z,51.59
2023-01-21T22:55:04.751Z,51.10
2023-01-21T23:01:30.532Z,50.98
2023-01-21T23:07:53.273Z,51.09
2023-01-21T23:13:57.962Z,51.56
2023-01-21T23:20:02.750Z,50.74
2023-01-21T23:26:06.062Z,50.41
2023-01-21T23:32:24.101Z,51.17
2023-01-21T23:38:33.701Z,51.26
2023-01-21T23:44:38.606Z,51.39
2023-01-21T23:51:04.312Z,51.44
2023-01-21T23:57:10.646Z,50.47
